sensor_id;sensor_type;location;lat;lon;timestamp;temperature;humidity
17331;DHT22;8783;52.448;4.638;2024-02-21T00:00:37;9.20;99.90
17331;DHT22;8783;52.448;4.638;2024-02-21T00:03:04;9.10;99.90
17331;DHT22;8783;52.448;4.638;2024-02-21T00:05:30;9.20;99.90
17331;DHT22;8783;52.448;4.638;2024-02-21T00:07:57;9.20;99.90
17331;DHT22;8783;52.448;4.638;2024-02-21T00:10:23;9.20;99.90
17331;DHT22;8783;52.448;4.638;2024-02-21T00:12:48;9.20;99.90
17331;DHT22;8783;52.448;4.638;2024-02-21T00:15:14;9.20;99.90
17331;DHT22;8783;52.448;4.638;2024-02-21T00:17:40;9.20;99.90
17331;DHT22;8783;52.448;4.638;2024-02-21T00:20:07;9.20;99.90
17331;DHT22;8783;52.448;4.638;2024-02-21T00:22:32;9.20;99.90
17331;DHT22;8783;52.448;4.638;2024-02-21T00:24:59;9.20;99.90
17331;DHT22;8783;52.448;4.638;2024-02-21T00:27:24;9.20;99.90
17331;DHT22;8783;52.448;4.638;2024-02-21T00:29:51;9.10;99.90
17331;DHT22;8783;52.448;4.638;2024-02-21T00:32:16;9.20;99.90
17331;DHT22;8783;52.448;4.638;2024-02-21T00:34:43;9.20;99.90
17331;DHT22;8783;52.448;4.638;2024-02-21T00:37:09;9.20;99.90
17331;DHT22;8783;52.448;4.638;2024-02-21T00:39:34;9.20;99.90
17331;DHT22;8783;52.448;4.638;2024-02-21T00:42:00;9.10;99.90
17331;DHT22;8783;52.448;4.638;2024-02-21T00:44:26;9.10;99.90
17331;DHT22;8783;52.448;4.638;2024-02-21T00:46:52;9.10;99.90
17331;DHT22;8783;52.448;4.638;2024-02-21T00:49:18;9.10;99.90
17331;DHT22;8783;52.448;4.638;2024-02-21T00:51:43;9.10;99.90
17331;DHT22;8783;52.448;4.638;2024-02-21T00:54:09;9.10;99.90
17331;DHT22;8783;52.448;4.638;2024-02-21T00:56:34;9.10;99.90
17331;DHT22;8783;52.448;4.638;2024-02-21T00:59:00;9.10;99.90
17331;DHT22;8783;52.448;4.638;2024-02-21T01:01:26;9.10;99.90
17331;DHT22;8783;52.448;4.638;2024-02-21T01:03:51;9.10;99.90
17331;DHT22;8783;52.448;4.638;2024-02-21T01:06:20;9.10;99.90
17331;DHT22;8783;52.448;4.638;2024-02-21T01:08:47;9.10;99.90
17331;DHT22;8783;52.448;4.638;2024-02-21T01:11:13;9.10;99.90
17331;DHT22;8783;52.448;4.638;2024-02-21T01:13:39;9.10;99.90
17331;DHT22;8783;52.448;4.638;2024-02-21T01:16:05;9.10;99.90
17331;DHT22;8783;52.448;4.638;2024-02-21T01:18:32;9.10;99.90
17331;DHT22;8783;52.448;4.638;2024-02-21T01:20:58;9.10;99.90
17331;DHT22;8783;52.448;4.638;2024-02-21T01:23:24;9.10;99.90
17331;DHT22;8783;52.448;4.638;2024-02-21T01:25:50;9.10;99.90
17331;DHT22;8783;52.448;4.638;2024-02-21T01:28:17;9.10;99.90
17331;DHT22;8783;52.448;4.638;2024-02-21T01:30:42;9.10;99.90
17331;DHT22;8783;52.448;4.638;2024-02-21T01:33:08;9.10;99.90
17331;DHT22;8783;52.448;4.638;2024-02-21T01:35:35;9.10;99.90
17331;DHT22;8783;52.448;4.638;2024-02-21T01:38:01;9.10;99.90
17331;DHT22;8783;52.448;4.638;2024-02-21T01:40:27;9.10;99.90
17331;DHT22;8783;52.448;4.638;2024-02-21T01:42:55;9.10;99.90
17331;DHT22;8783;52.448;4.638;2024-02-21T01:45:20;9.10;99.90
17331;DHT22;8783;52.448;4.638;2024-02-21T01:47:47;9.10;99.90
17331;DHT22;8783;52.448;4.638;2024-02-21T01:50:14;9.10;99.90
17331;DHT22;8783;52.448;4.638;2024-02-21T01:52:41;9.10;99.90
17331;DHT22;8783;52.448;4.638;2024-02-21T01:55:07;9.10;99.90
17331;DHT22;8783;52.448;4.638;2024-02-21T01:57:35;9.10;99.90
17331;DHT22;8783;52.448;4.638;2024-02-21T02:00:01;9.10;99.90
17331;DHT22;8783;52.448;4.638;2024-02-21T02:02:27;9.10;99.90
17331;DHT22;8783;52.448;4.638;2024-02-21T02:04:52;9.10;99.90
17331;DHT22;8783;52.448;4.638;2024-02-21T02:07:18;9.10;99.90
17331;DHT22;8783;52.448;4.638;2024-02-21T02:09:44;9.10;99.90
17331;DHT22;8783;52.448;4.638;2024-02-21T02:12:09;9.10;99.90
17331;DHT22;8783;52.448;4.638;2024-02-21T02:14:35;9.10;99.90
17331;DHT22;8783;52.448;4.638;2024-02-21T02:17:01;9.10;99.90
17331;DHT22;8783;52.448;4.638;2024-02-21T02:19:26;9.10;99.90
17331;DHT22;8783;52.448;4.638;2024-02-21T02:21:59;9.10;99.90
17331;DHT22;8783;52.448;4.638;2024-02-21T02:24:25;9.10;99.90
17331;DHT22;8783;52.448;4.638;2024-02-21T02:26:51;9.10;99.90
17331;DHT22;8783;52.448;4.638;2024-02-21T02:29:17;9.10;99.90
17331;DHT22;8783;52.448;4.638;2024-02-21T02:31:43;9.10;99.90
17331;DHT22;8783;52.448;4.638;2024-02-21T02:34:08;9.10;99.90
17331;DHT22;8783;52.448;4.638;2024-02-21T02:36:35;9.10;99.90
17331;DHT22;8783;52.448;4.638;2024-02-21T02:39:00;9.10;99.90
17331;DHT22;8783;52.448;4.638;2024-02-21T02:41:26;9.10;99.90
17331;DHT22;8783;52.448;4.638;2024-02-21T02:43:51;9.10;99.90
17331;DHT22;8783;52.448;4.638;2024-02-21T02:46:17;9.10;99.90
17331;DHT22;8783;52.448;4.638;2024-02-21T02:48:43;9.10;99.90
17331;DHT22;8783;52.448;4.638;2024-02-21T02:51:08;9.10;99.90
17331;DHT22;8783;52.448;4.638;2024-02-21T02:53:34;9.10;99.90
17331;DHT22;8783;52.448;4.638;2024-02-21T02:55:59;9.10;99.90
17331;DHT22;8783;52.448;4.638;2024-02-21T02:58:25;9.10;99.90
17331;DHT22;8783;52.448;4.638;2024-02-21T03:00:51;9.10;99.90
17331;DHT22;8783;52.448;4.638;2024-02-21T03:03:16;9.10;99.90
17331;DHT22;8783;52.448;4.638;2024-02-21T03:05:42;9.10;99.90
17331;DHT22;8783;52.448;4.638;2024-02-21T03:08:07;9.10;99.90
17331;DHT22;8783;52.448;4.638;2024-02-21T03:10:33;9.10;99.90
17331;DHT22;8783;52.448;4.638;2024-02-21T03:12:59;9.10;99.90
17331;DHT22;8783;52.448;4.638;2024-02-21T03:15:25;9.10;99.90
17331;DHT22;8783;52.448;4.638;2024-02-21T03:17:50;9.10;99.90
17331;DHT22;8783;52.448;4.638;2024-02-21T03:20:16;9.10;99.90
17331;DHT22;8783;52.448;4.638;2024-02-21T03:22:42;9.10;99.90
17331;DHT22;8783;52.448;4.638;2024-02-21T03:25:08;9.10;99.90
17331;DHT22;8783;52.448;4.638;2024-02-21T03:27:35;9.10;99.90
17331;DHT22;8783;52.448;4.638;2024-02-21T03:30:00;9.10;99.90
17331;DHT22;8783;52.448;4.638;2024-02-21T03:32:26;9.10;99.90
17331;DHT22;8783;52.448;4.638;2024-02-21T03:34:53;9.10;99.90
17331;DHT22;8783;52.448;4.638;2024-02-21T03:37:20;9.10;99.90
17331;DHT22;8783;52.448;4.638;2024-02-21T03:39:45;9.10;99.90
17331;DHT22;8783;52.448;4.638;2024-02-21T03:42:11;9.10;99.90
17331;DHT22;8783;52.448;4.638;2024-02-21T03:44:37;9.10;99.90
17331;DHT22;8783;52.448;4.638;2024-02-21T03:47:03;9.10;99.90
17331;DHT22;8783;52.448;4.638;2024-02-21T03:49:28;9.10;99.90
17331;DHT22;8783;52.448;4.638;2024-02-21T03:51:54;9.10;99.90
17331;DHT22;8783;52.448;4.638;2024-02-21T03:54:20;9.10;99.90
17331;DHT22;8783;52.448;4.638;2024-02-21T03:56:45;9.10;99.90
17331;DHT22;8783;52.448;4.638;2024-02-21T03:59:13;9.10;99.90
17331;DHT22;8783;52.448;4.638;2024-02-21T04:01:39;9.10;99.90
17331;DHT22;8783;52.448;4.638;2024-02-21T04:04:04;9.10;99.90
17331;DHT22;8783;52.448;4.638;2024-02-21T04:06:30;9.10;99.90
17331;DHT22;8783;52.448;4.638;2024-02-21T04:08:56;9.10;99.90
17331;DHT22;8783;52.448;4.638;2024-02-21T04:11:22;9.10;99.90
17331;DHT22;8783;52.448;4.638;2024-02-21T04:13:47;9.10;99.90
17331;DHT22;8783;52.448;4.638;2024-02-21T04:16:15;9.10;99.90
17331;DHT22;8783;52.448;4.638;2024-02-21T04:18:41;9.10;99.90
17331;DHT22;8783;52.448;4.638;2024-02-21T04:21:07;9.10;99.90
17331;DHT22;8783;52.448;4.638;2024-02-21T04:23:33;9.10;99.90
17331;DHT22;8783;52.448;4.638;2024-02-21T04:25:58;9.10;99.90
17331;DHT22;8783;52.448;4.638;2024-02-21T04:28:24;9.10;99.90
17331;DHT22;8783;52.448;4.638;2024-02-21T04:30:50;9.10;99.90
17331;DHT22;8783;52.448;4.638;2024-02-21T04:33:16;9.10;99.90
17331;DHT22;8783;52.448;4.638;2024-02-21T04:35:41;9.10;99.90
17331;DHT22;8783;52.448;4.638;2024-02-21T04:38:07;9.10;99.90
17331;DHT22;8783;52.448;4.638;2024-02-21T04:40:32;9.10;99.90
17331;DHT22;8783;52.448;4.638;2024-02-21T04:42:58;9.10;99.90
17331;DHT22;8783;52.448;4.638;2024-02-21T04:45:23;9.10;99.90
17331;DHT22;8783;52.448;4.638;2024-02-21T04:47:49;9.10;99.90
17331;DHT22;8783;52.448;4.638;2024-02-21T04:50:15;9.10;99.90
17331;DHT22;8783;52.448;4.638;2024-02-21T04:52:40;9.10;99.90
17331;DHT22;8783;52.448;4.638;2024-02-21T04:55:06;9.10;99.90
17331;DHT22;8783;52.448;4.638;2024-02-21T04:57:32;9.10;99.90
17331;DHT22;8783;52.448;4.638;2024-02-21T04:59:58;9.10;99.90
17331;DHT22;8783;52.448;4.638;2024-02-21T05:02:24;9.10;99.90
17331;DHT22;8783;52.448;4.638;2024-02-21T05:04:50;9.10;99.90
17331;DHT22;8783;52.448;4.638;2024-02-21T05:07:16;9.10;99.90
17331;DHT22;8783;52.448;4.638;2024-02-21T05:09:45;9.10;99.90
17331;DHT22;8783;52.448;4.638;2024-02-21T05:12:11;9.10;99.90
17331;DHT22;8783;52.448;4.638;2024-02-21T05:14:36;9.10;99.90
17331;DHT22;8783;52.448;4.638;2024-02-21T05:17:03;9.10;99.90
17331;DHT22;8783;52.448;4.638;2024-02-21T05:19:28;9.10;99.90
17331;DHT22;8783;52.448;4.638;2024-02-21T05:21:54;9.10;99.90
17331;DHT22;8783;52.448;4.638;2024-02-21T05:24:20;9.10;99.90
17331;DHT22;8783;52.448;4.638;2024-02-21T05:26:45;9.10;99.90
17331;DHT22;8783;52.448;4.638;2024-02-21T05:29:11;9.10;99.90
17331;DHT22;8783;52.448;4.638;2024-02-21T05:31:55;9.10;99.90
17331;DHT22;8783;52.448;4.638;2024-02-21T05:34:24;9.10;99.90
17331;DHT22;8783;52.448;4.638;2024-02-21T05:36:51;9.10;99.90
17331;DHT22;8783;52.448;4.638;2024-02-21T05:39:17;9.10;99.90
17331;DHT22;8783;52.448;4.638;2024-02-21T05:41:43;9.10;99.90
17331;DHT22;8783;52.448;4.638;2024-02-21T05:44:10;9.10;99.90
17331;DHT22;8783;52.448;4.638;2024-02-21T05:46:36;9.10;99.90
17331;DHT22;8783;52.448;4.638;2024-02-21T05:49:01;9.10;99.90
17331;DHT22;8783;52.448;4.638;2024-02-21T05:51:27;9.10;99.90
17331;DHT22;8783;52.448;4.638;2024-02-21T05:53:53;9.10;99.90
17331;DHT22;8783;52.448;4.638;2024-02-21T05:56:18;9.10;99.90
17331;DHT22;8783;52.448;4.638;2024-02-21T05:58:44;9.10;99.90
17331;DHT22;8783;52.448;4.638;2024-02-21T06:01:13;9.10;99.90
17331;DHT22;8783;52.448;4.638;2024-02-21T06:03:39;9.10;99.90
17331;DHT22;8783;52.448;4.638;2024-02-21T06:06:05;9.10;99.90
17331;DHT22;8783;52.448;4.638;2024-02-21T06:08:31;9.10;99.90
17331;DHT22;8783;52.448;4.638;2024-02-21T06:10:56;9.10;99.90
17331;DHT22;8783;52.448;4.638;2024-02-21T06:13:23;9.10;99.90
17331;DHT22;8783;52.448;4.638;2024-02-21T06:15:49;9.10;99.90
17331;DHT22;8783;52.448;4.638;2024-02-21T06:18:17;9.10;99.90
17331;DHT22;8783;52.448;4.638;2024-02-21T06:20:43;9.10;99.90
17331;DHT22;8783;52.448;4.638;2024-02-21T06:23:09;9.10;99.90
17331;DHT22;8783;52.448;4.638;2024-02-21T06:25:35;9.10;99.90
17331;DHT22;8783;52.448;4.638;2024-02-21T06:28:01;9.10;99.90
17331;DHT22;8783;52.448;4.638;2024-02-21T06:30:27;9.10;99.90
17331;DHT22;8783;52.448;4.638;2024-02-21T06:32:52;9.10;99.90
17331;DHT22;8783;52.448;4.638;2024-02-21T06:35:21;9.10;99.90
17331;DHT22;8783;52.448;4.638;2024-02-21T06:37:47;9.10;99.90
17331;DHT22;8783;52.448;4.638;2024-02-21T06:40:17;9.10;99.90
17331;DHT22;8783;52.448;4.638;2024-02-21T06:42:42;9.10;99.90
17331;DHT22;8783;52.448;4.638;2024-02-21T06:45:08;9.10;99.90
17331;DHT22;8783;52.448;4.638;2024-02-21T06:47:34;9.10;99.90
17331;DHT22;8783;52.448;4.638;2024-02-21T06:49:59;9.10;99.90
17331;DHT22;8783;52.448;4.638;2024-02-21T06:52:25;9.10;99.90
17331;DHT22;8783;52.448;4.638;2024-02-21T06:54:51;9.10;99.90
17331;DHT22;8783;52.448;4.638;2024-02-21T06:57:16;9.10;99.90
17331;DHT22;8783;52.448;4.638;2024-02-21T06:59:42;9.10;99.90
17331;DHT22;8783;52.448;4.638;2024-02-21T07:02:08;9.10;99.90
17331;DHT22;8783;52.448;4.638;2024-02-21T07:04:34;9.10;99.90
17331;DHT22;8783;52.448;4.638;2024-02-21T07:06:59;9.10;99.90
17331;DHT22;8783;52.448;4.638;2024-02-21T07:09:28;9.10;99.90
17331;DHT22;8783;52.448;4.638;2024-02-21T07:11:57;9.10;99.90
17331;DHT22;8783;52.448;4.638;2024-02-21T07:14:23;9.10;99.90
17331;DHT22;8783;52.448;4.638;2024-02-21T07:16:48;9.10;99.90
17331;DHT22;8783;52.448;4.638;2024-02-21T07:19:14;9.10;99.90
17331;DHT22;8783;52.448;4.638;2024-02-21T07:21:40;9.10;99.90
17331;DHT22;8783;52.448;4.638;2024-02-21T07:24:08;9.10;99.90
17331;DHT22;8783;52.448;4.638;2024-02-21T07:26:33;9.10;99.90
17331;DHT22;8783;52.448;4.638;2024-02-21T07:28:59;9.10;99.90
17331;DHT22;8783;52.448;4.638;2024-02-21T07:31:24;9.10;99.90
17331;DHT22;8783;52.448;4.638;2024-02-21T07:33:50;9.10;99.90
17331;DHT22;8783;52.448;4.638;2024-02-21T07:36:23;9.10;99.90
17331;DHT22;8783;52.448;4.638;2024-02-21T07:38:49;9.20;99.90
17331;DHT22;8783;52.448;4.638;2024-02-21T07:41:15;9.20;99.90
17331;DHT22;8783;52.448;4.638;2024-02-21T07:43:41;9.20;99.90
17331;DHT22;8783;52.448;4.638;2024-02-21T07:46:06;9.20;99.90
17331;DHT22;8783;52.448;4.638;2024-02-21T07:48:32;9.20;99.90
17331;DHT22;8783;52.448;4.638;2024-02-21T07:50:58;9.20;99.90
17331;DHT22;8783;52.448;4.638;2024-02-21T07:53:23;9.20;99.90
17331;DHT22;8783;52.448;4.638;2024-02-21T07:55:49;9.30;99.90
17331;DHT22;8783;52.448;4.638;2024-02-21T07:58:15;9.30;99.90
17331;DHT22;8783;52.448;4.638;2024-02-21T08:00:40;9.30;99.90
17331;DHT22;8783;52.448;4.638;2024-02-21T08:03:06;9.30;99.90
17331;DHT22;8783;52.448;4.638;2024-02-21T08:05:34;9.30;99.90
17331;DHT22;8783;52.448;4.638;2024-02-21T08:08:00;9.30;99.90
17331;DHT22;8783;52.448;4.638;2024-02-21T08:10:26;9.40;99.90
17331;DHT22;8783;52.448;4.638;2024-02-21T08:12:51;9.40;99.90
17331;DHT22;8783;52.448;4.638;2024-02-21T08:15:17;9.40;99.90
17331;DHT22;8783;52.448;4.638;2024-02-21T08:17:43;9.40;99.90
17331;DHT22;8783;52.448;4.638;2024-02-21T08:20:09;9.40;99.90
17331;DHT22;8783;52.448;4.638;2024-02-21T08:22:37;9.40;99.90
17331;DHT22;8783;52.448;4.638;2024-02-21T08:25:03;9.40;99.90
17331;DHT22;8783;52.448;4.638;2024-02-21T08:27:31;9.50;99.90
17331;DHT22;8783;52.448;4.638;2024-02-21T08:29:56;9.50;99.90
17331;DHT22;8783;52.448;4.638;2024-02-21T08:32:22;9.50;99.90
17331;DHT22;8783;52.448;4.638;2024-02-21T08:34:47;9.50;99.90
17331;DHT22;8783;52.448;4.638;2024-02-21T08:37:13;9.50;99.90
17331;DHT22;8783;52.448;4.638;2024-02-21T08:39:38;9.50;99.90
17331;DHT22;8783;52.448;4.638;2024-02-21T08:42:04;9.50;99.90
17331;DHT22;8783;52.448;4.638;2024-02-21T08:44:30;9.50;99.90
17331;DHT22;8783;52.448;4.638;2024-02-21T08:46:56;9.50;99.90
17331;DHT22;8783;52.448;4.638;2024-02-21T08:49:22;9.50;99.90
17331;DHT22;8783;52.448;4.638;2024-02-21T08:51:47;9.60;99.90
17331;DHT22;8783;52.448;4.638;2024-02-21T08:54:13;9.60;99.90
17331;DHT22;8783;52.448;4.638;2024-02-21T08:56:38;9.60;99.90
17331;DHT22;8783;52.448;4.638;2024-02-21T08:59:04;9.60;99.90
17331;DHT22;8783;52.448;4.638;2024-02-21T09:01:30;9.60;99.90
17331;DHT22;8783;52.448;4.638;2024-02-21T09:03:55;9.60;99.90
17331;DHT22;8783;52.448;4.638;2024-02-21T09:06:22;9.60;99.90
17331;DHT22;8783;52.448;4.638;2024-02-21T09:08:48;9.60;99.90
17331;DHT22;8783;52.448;4.638;2024-02-21T09:11:14;9.70;99.90
17331;DHT22;8783;52.448;4.638;2024-02-21T09:13:40;9.70;99.90
17331;DHT22;8783;52.448;4.638;2024-02-21T09:16:06;9.70;99.90
17331;DHT22;8783;52.448;4.638;2024-02-21T09:18:31;9.70;99.90
17331;DHT22;8783;52.448;4.638;2024-02-21T09:20:57;9.70;99.90
17331;DHT22;8783;52.448;4.638;2024-02-21T09:23:26;9.70;99.90
17331;DHT22;8783;52.448;4.638;2024-02-21T09:25:52;9.70;99.90
17331;DHT22;8783;52.448;4.638;2024-02-21T09:28:17;9.70;99.90
17331;DHT22;8783;52.448;4.638;2024-02-21T09:30:44;9.70;99.90
17331;DHT22;8783;52.448;4.638;2024-02-21T09:33:09;9.70;99.90
17331;DHT22;8783;52.448;4.638;2024-02-21T09:35:35;9.80;99.90
17331;DHT22;8783;52.448;4.638;2024-02-21T09:38:01;9.80;99.90
17331;DHT22;8783;52.448;4.638;2024-02-21T09:40:27;9.80;99.90
17331;DHT22;8783;52.448;4.638;2024-02-21T09:43:03;9.80;99.90
17331;DHT22;8783;52.448;4.638;2024-02-21T09:45:34;9.80;99.90
17331;DHT22;8783;52.448;4.638;2024-02-21T09:50:46;9.80;99.90
17331;DHT22;8783;52.448;4.638;2024-02-21T09:53:13;9.80;99.90
17331;DHT22;8783;52.448;4.638;2024-02-21T09:55:40;9.80;99.90
17331;DHT22;8783;52.448;4.638;2024-02-21T09:58:07;9.80;99.90
17331;DHT22;8783;52.448;4.638;2024-02-21T10:00:34;9.90;99.90
17331;DHT22;8783;52.448;4.638;2024-02-21T10:03:00;9.90;99.90
17331;DHT22;8783;52.448;4.638;2024-02-21T10:05:26;9.90;99.90
17331;DHT22;8783;52.448;4.638;2024-02-21T10:07:53;9.90;99.90
17331;DHT22;8783;52.448;4.638;2024-02-21T10:10:19;9.90;99.90
17331;DHT22;8783;52.448;4.638;2024-02-21T10:12:51;9.90;99.90
17331;DHT22;8783;52.448;4.638;2024-02-21T10:15:20;9.90;99.90
17331;DHT22;8783;52.448;4.638;2024-02-21T10:17:57;9.90;99.90
17331;DHT22;8783;52.448;4.638;2024-02-21T10:20:23;10.00;99.90
17331;DHT22;8783;52.448;4.638;2024-02-21T10:22:48;10.00;99.90
17331;DHT22;8783;52.448;4.638;2024-02-21T10:25:14;10.00;99.90
17331;DHT22;8783;52.448;4.638;2024-02-21T10:27:40;10.00;99.90
17331;DHT22;8783;52.448;4.638;2024-02-21T10:30:12;10.00;99.90
17331;DHT22;8783;52.448;4.638;2024-02-21T10:32:51;10.00;99.90
17331;DHT22;8783;52.448;4.638;2024-02-21T10:37:54;10.10;99.90
17331;DHT22;8783;52.448;4.638;2024-02-21T10:40:23;10.10;99.90
17331;DHT22;8783;52.448;4.638;2024-02-21T10:42:52;10.10;99.90
17331;DHT22;8783;52.448;4.638;2024-02-21T10:45:21;10.10;99.90
17331;DHT22;8783;52.448;4.638;2024-02-21T10:47:51;10.10;99.90
17331;DHT22;8783;52.448;4.638;2024-02-21T10:50:21;10.10;99.90
17331;DHT22;8783;52.448;4.638;2024-02-21T10:53:05;10.10;99.90
17331;DHT22;8783;52.448;4.638;2024-02-21T10:55:38;10.20;99.90
17331;DHT22;8783;52.448;4.638;2024-02-21T10:58:07;10.10;99.90
17331;DHT22;8783;52.448;4.638;2024-02-21T11:00:34;10.20;99.90
17331;DHT22;8783;52.448;4.638;2024-02-21T11:03:00;10.10;99.90
17331;DHT22;8783;52.448;4.638;2024-02-21T11:05:26;10.20;99.90
17331;DHT22;8783;52.448;4.638;2024-02-21T11:07:53;10.20;99.90
17331;DHT22;8783;52.448;4.638;2024-02-21T11:10:26;10.20;99.90
17331;DHT22;8783;52.448;4.638;2024-02-21T11:13:08;10.20;99.90
17331;DHT22;8783;52.448;4.638;2024-02-21T11:15:34;10.20;99.90
17331;DHT22;8783;52.448;4.638;2024-02-21T11:17:59;10.20;99.90
17331;DHT22;8783;52.448;4.638;2024-02-21T11:20:33;10.20;99.90
17331;DHT22;8783;52.448;4.638;2024-02-21T11:22:59;10.20;99.90
17331;DHT22;8783;52.448;4.638;2024-02-21T11:25:26;10.20;99.90
17331;DHT22;8783;52.448;4.638;2024-02-21T11:28:02;10.20;99.90
17331;DHT22;8783;52.448;4.638;2024-02-21T11:30:30;10.20;99.90
17331;DHT22;8783;52.448;4.638;2024-02-21T11:33:01;10.20;99.90
17331;DHT22;8783;52.448;4.638;2024-02-21T11:35:34;10.20;99.90
17331;DHT22;8783;52.448;4.638;2024-02-21T11:40:38;10.30;99.90
17331;DHT22;8783;52.448;4.638;2024-02-21T11:43:06;10.30;99.90
17331;DHT22;8783;52.448;4.638;2024-02-21T11:45:31;10.30;99.90
17331;DHT22;8783;52.448;4.638;2024-02-21T11:47:58;10.30;99.90
17331;DHT22;8783;52.448;4.638;2024-02-21T11:50:28;10.40;99.90
17331;DHT22;8783;52.448;4.638;2024-02-21T11:52:55;10.40;99.90
17331;DHT22;8783;52.448;4.638;2024-02-21T11:55:21;10.40;99.90
17331;DHT22;8783;52.448;4.638;2024-02-21T11:57:50;10.40;99.90
17331;DHT22;8783;52.448;4.638;2024-02-21T12:00:22;10.40;99.90
17331;DHT22;8783;52.448;4.638;2024-02-21T12:02:50;10.40;99.90
17331;DHT22;8783;52.448;4.638;2024-02-21T12:05:16;10.40;99.90
17331;DHT22;8783;52.448;4.638;2024-02-21T12:07:41;10.40;99.90
17331;DHT22;8783;52.448;4.638;2024-02-21T12:10:11;10.40;99.90
17331;DHT22;8783;52.448;4.638;2024-02-21T12:12:37;10.40;99.90
17331;DHT22;8783;52.448;4.638;2024-02-21T12:15:07;10.40;99.90
17331;DHT22;8783;52.448;4.638;2024-02-21T12:17:36;10.40;99.90
17331;DHT22;8783;52.448;4.638;2024-02-21T12:20:03;10.40;99.90
17331;DHT22;8783;52.448;4.638;2024-02-21T12:22:31;10.50;99.90
17331;DHT22;8783;52.448;4.638;2024-02-21T12:24:58;10.40;99.90
17331;DHT22;8783;52.448;4.638;2024-02-21T12:27:24;10.50;99.90
17331;DHT22;8783;52.448;4.638;2024-02-21T12:29:50;10.40;99.90
17331;DHT22;8783;52.448;4.638;2024-02-21T12:32:16;10.50;99.90
17331;DHT22;8783;52.448;4.638;2024-02-21T12:34:42;10.50;99.90
17331;DHT22;8783;52.448;4.638;2024-02-21T12:37:07;10.50;99.90
17331;DHT22;8783;52.448;4.638;2024-02-21T12:39:33;10.50;99.90
17331;DHT22;8783;52.448;4.638;2024-02-21T12:41:59;10.50;99.90
17331;DHT22;8783;52.448;4.638;2024-02-21T12:44:25;10.50;99.90
17331;DHT22;8783;52.448;4.638;2024-02-21T12:46:50;10.60;99.90
17331;DHT22;8783;52.448;4.638;2024-02-21T12:49:19;10.60;99.90
17331;DHT22;8783;52.448;4.638;2024-02-21T12:51:44;10.60;99.90
17331;DHT22;8783;52.448;4.638;2024-02-21T12:54:12;10.60;99.90
17331;DHT22;8783;52.448;4.638;2024-02-21T12:56:38;10.60;99.90
17331;DHT22;8783;52.448;4.638;2024-02-21T12:59:05;10.60;99.90
17331;DHT22;8783;52.448;4.638;2024-02-21T13:01:30;10.60;99.90
17331;DHT22;8783;52.448;4.638;2024-02-21T13:03:56;10.60;99.90
17331;DHT22;8783;52.448;4.638;2024-02-21T13:06:23;10.60;99.90
17331;DHT22;8783;52.448;4.638;2024-02-21T13:08:51;10.60;99.90
17331;DHT22;8783;52.448;4.638;2024-02-21T13:11:16;10.60;99.90
17331;DHT22;8783;52.448;4.638;2024-02-21T13:13:42;10.70;99.90
17331;DHT22;8783;52.448;4.638;2024-02-21T13:16:07;10.70;99.90
17331;DHT22;8783;52.448;4.638;2024-02-21T13:18:35;10.70;99.90
17331;DHT22;8783;52.448;4.638;2024-02-21T13:21:05;10.70;99.90
17331;DHT22;8783;52.448;4.638;2024-02-21T13:23:31;10.70;99.90
17331;DHT22;8783;52.448;4.638;2024-02-21T13:25:57;10.70;99.90
17331;DHT22;8783;52.448;4.638;2024-02-21T13:28:22;10.70;99.90
17331;DHT22;8783;52.448;4.638;2024-02-21T13:30:48;10.70;99.90
17331;DHT22;8783;52.448;4.638;2024-02-21T13:33:14;10.70;99.90
17331;DHT22;8783;52.448;4.638;2024-02-21T13:35:39;10.70;99.90
17331;DHT22;8783;52.448;4.638;2024-02-21T13:38:05;10.70;99.90
17331;DHT22;8783;52.448;4.638;2024-02-21T13:40:31;10.70;99.90
17331;DHT22;8783;52.448;4.638;2024-02-21T13:42:56;10.70;99.90
17331;DHT22;8783;52.448;4.638;2024-02-21T13:45:22;10.70;99.90
17331;DHT22;8783;52.448;4.638;2024-02-21T13:47:48;10.70;99.90
17331;DHT22;8783;52.448;4.638;2024-02-21T13:50:14;10.70;99.90
17331;DHT22;8783;52.448;4.638;2024-02-21T13:52:43;10.70;99.90
17331;DHT22;8783;52.448;4.638;2024-02-21T13:55:09;10.70;99.90
17331;DHT22;8783;52.448;4.638;2024-02-21T13:57:35;10.70;99.90
17331;DHT22;8783;52.448;4.638;2024-02-21T14:00:02;10.70;99.90
17331;DHT22;8783;52.448;4.638;2024-02-21T14:02:28;10.70;99.90
17331;DHT22;8783;52.448;4.638;2024-02-21T14:04:54;10.70;99.90
17331;DHT22;8783;52.448;4.638;2024-02-21T14:07:20;10.70;99.90
17331;DHT22;8783;52.448;4.638;2024-02-21T14:09:45;10.70;99.90
17331;DHT22;8783;52.448;4.638;2024-02-21T14:12:11;10.70;99.90
17331;DHT22;8783;52.448;4.638;2024-02-21T14:14:37;10.70;99.90
17331;DHT22;8783;52.448;4.638;2024-02-21T14:17:03;10.70;99.90
17331;DHT22;8783;52.448;4.638;2024-02-21T14:19:30;10.70;99.90
17331;DHT22;8783;52.448;4.638;2024-02-21T14:21:56;10.60;99.90
17331;DHT22;8783;52.448;4.638;2024-02-21T14:24:22;10.60;99.90
17331;DHT22;8783;52.448;4.638;2024-02-21T14:26:48;10.70;99.90
17331;DHT22;8783;52.448;4.638;2024-02-21T14:29:14;10.70;99.90
17331;DHT22;8783;52.448;4.638;2024-02-21T14:31:39;10.60;99.90
17331;DHT22;8783;52.448;4.638;2024-02-21T14:34:05;10.60;99.90
17331;DHT22;8783;52.448;4.638;2024-02-21T14:36:33;10.60;99.90
17331;DHT22;8783;52.448;4.638;2024-02-21T14:38:58;10.60;99.90
17331;DHT22;8783;52.448;4.638;2024-02-21T14:41:24;10.60;99.90
17331;DHT22;8783;52.448;4.638;2024-02-21T14:43:50;10.60;99.90
17331;DHT22;8783;52.448;4.638;2024-02-21T14:46:17;10.60;99.90
17331;DHT22;8783;52.448;4.638;2024-02-21T14:48:42;10.60;99.90
17331;DHT22;8783;52.448;4.638;2024-02-21T14:51:08;10.60;99.90
17331;DHT22;8783;52.448;4.638;2024-02-21T14:53:34;10.60;99.90
17331;DHT22;8783;52.448;4.638;2024-02-21T14:56:00;10.60;99.90
17331;DHT22;8783;52.448;4.638;2024-02-21T14:58:25;10.60;99.90
17331;DHT22;8783;52.448;4.638;2024-02-21T15:00:51;10.60;99.90
17331;DHT22;8783;52.448;4.638;2024-02-21T15:03:17;10.60;99.90
17331;DHT22;8783;52.448;4.638;2024-02-21T15:05:46;10.60;99.90
17331;DHT22;8783;52.448;4.638;2024-02-21T15:08:12;10.50;99.90
17331;DHT22;8783;52.448;4.638;2024-02-21T15:10:42;10.50;99.90
17331;DHT22;8783;52.448;4.638;2024-02-21T15:13:07;10.50;99.90
17331;DHT22;8783;52.448;4.638;2024-02-21T15:15:33;10.50;99.90
17331;DHT22;8783;52.448;4.638;2024-02-21T15:17:59;10.50;99.90
17331;DHT22;8783;52.448;4.638;2024-02-21T15:20:24;10.50;99.90
17331;DHT22;8783;52.448;4.638;2024-02-21T15:22:50;10.50;99.90
17331;DHT22;8783;52.448;4.638;2024-02-21T15:25:16;10.50;99.90
17331;DHT22;8783;52.448;4.638;2024-02-21T15:27:43;10.50;99.90
17331;DHT22;8783;52.448;4.638;2024-02-21T15:30:13;10.40;99.90
17331;DHT22;8783;52.448;4.638;2024-02-21T15:32:39;10.40;99.90
17331;DHT22;8783;52.448;4.638;2024-02-21T15:35:06;10.40;99.90
17331;DHT22;8783;52.448;4.638;2024-02-21T15:37:32;10.40;99.90
17331;DHT22;8783;52.448;4.638;2024-02-21T15:39:58;10.40;99.90
17331;DHT22;8783;52.448;4.638;2024-02-21T15:42:24;10.40;99.90
17331;DHT22;8783;52.448;4.638;2024-02-21T15:44:50;10.40;99.90
17331;DHT22;8783;52.448;4.638;2024-02-21T15:47:15;10.40;99.90
17331;DHT22;8783;52.448;4.638;2024-02-21T15:49:44;10.40;99.90
17331;DHT22;8783;52.448;4.638;2024-02-21T15:52:09;10.40;99.90
17331;DHT22;8783;52.448;4.638;2024-02-21T15:54:36;10.40;99.90
17331;DHT22;8783;52.448;4.638;2024-02-21T15:57:02;10.40;99.90
17331;DHT22;8783;52.448;4.638;2024-02-21T15:59:31;10.30;99.90